Key West, Florida
Current Conditions -  °F | °C
As of 9:53 PM on Friday 24 Oct 2014 (Local Time) from KEYW Reporting Station
Clear Clear  
Wind Chill: 26°   Ceiling: Unl
Heat Index: 28°   Visibility: 10mi
Dew Point: 22°   Wind: 12mph
Humidity: 79%   Direction: 30°NNE
Pressure: 29.87"   Gusts: 22mph
Location:  24.55°N, 81.8°W
Report Text: KEYW 250153Z AUTO 03010G19KT 10SM CLR 26/22 A2987 RMK AO2 SLP113 T02610222
Loading
Personal Weather Stations






























Interactive Weather Map
Tropical Storm Tracking
New forecast layout! Learn more

10-Day Weather Forecast

Advertisements
Track Severe Weather on mobile